Time;durP1;ratioP1;P1;durP2;ratioP2;P2;SDS_P1;SDS_P2;PMS_P1;PMS_P2;Temp;Humidity;BMP_temperature;BMP_pressure;BME280_temperature;BME280_humidity;BME280_pressure;Samples;Min_cycle;Max_cycle;Signal;HPM_P1;HPM_P2
2022/05/27 00:02:15;;;;;;;3.80;3.20;;;;;;;;;;5014385;28;20228;-56
2022/05/27 00:04:41;;;;;;;3.73;3.43;;;;;;;;;;5010544;28;20194;-55
2022/05/27 00:07:07;;;;;;;4.77;3.57;;;;;;;;;;5064041;28;20246;-56
2022/05/27 00:09:34;;;;;;;3.23;3.00;;;;;;;;;;5051132;28;20192;-56
2022/05/27 00:12:00;;;;;;;5.07;3.73;;;;;;;;;;5049178;28;20677;-56
2022/05/27 00:14:26;;;;;;;4.13;3.40;;;;;;;;;;5065884;28;20278;-57
2022/05/27 00:16:53;;;;;;;4.47;3.57;;;;;;;;;;5044800;28;20357;-57
2022/05/27 00:19:19;;;;;;;4.37;3.97;;;;;;;;;;5047597;28;20211;-56
2022/05/27 00:21:45;;;;;;;5.73;3.77;;;;;;;;;;5067578;28;20241;-56
2022/05/27 00:24:11;;;;;;;3.67;3.13;;;;;;;;;;5067537;28;20177;-56
2022/05/27 00:26:37;;;;;;;4.82;3.90;;;;;;;;;;5054671;28;20429;-56
2022/05/27 00:29:07;;;;;;;4.47;3.87;;;;;;;;;;5049778;28;20407;-57
2022/05/27 00:31:36;;;;;;;4.33;3.60;;;;;;;;;;5043405;28;20202;-56
2022/05/27 00:34:05;;;;;;;3.87;3.30;;;;;;;;;;5048760;28;20194;-55
2022/05/27 00:36:31;;;;;;;4.17;3.73;;;;;;;;;;5069493;28;20231;-54
2022/05/27 00:39:00;;;;;;;4.47;3.80;;;;;;;;;;5050355;28;20214;-55
2022/05/27 00:41:26;;;;;;;6.83;3.80;;;;;;;;;;5034152;28;20179;-55
2022/05/27 00:43:52;;;;;;;4.93;4.03;;;;;;;;;;5036420;28;20209;-54
2022/05/27 00:46:45;;;;;;;5.93;4.30;;;;;;;;;;5061181;28;20180;-55
2022/05/27 00:49:19;;;;;;;5.37;3.77;;;;;;;;;;5055920;28;20194;-57
2022/05/27 00:51:53;;;;;;;5.00;4.17;;;;;;;;;;5066855;28;20180;-54
2022/05/27 00:54:22;;;;;;;4.63;4.20;;;;;;;;;;5065179;28;20283;-55
2022/05/27 00:56:54;;;;;;;4.37;3.90;;;;;;;;;;5022804;28;20190;-55
2022/05/27 00:59:31;;;;;;;4.40;3.80;;;;;;;;;;5039381;28;20205;-55
2022/05/27 01:01:59;;;;;;;5.33;3.63;;;;;;;;;;5047702;28;20698;-56
2022/05/27 01:04:27;;;;;;;5.87;4.17;;;;;;;;;;5066106;28;20192;-55
2022/05/27 01:06:53;;;;;;;4.40;3.80;;;;;;;;;;5054284;28;20211;-55
2022/05/27 01:09:20;;;;;;;5.17;4.60;;;;;;;;;;5049943;28;20586;-55
2022/05/27 01:11:56;;;;;;;4.30;3.90;;;;;;;;;;5041290;28;20180;-56
2022/05/27 01:14:33;;;;;;;5.83;4.07;;;;;;;;;;5065170;28;20179;-56
2022/05/27 01:17:02;;;;;;;4.63;4.10;;;;;;;;;;5064568;28;20180;-57
2022/05/27 01:22:22;;;;;;;4.47;4.07;;;;;;;;;;5064736;28;20288;-56
2022/05/27 01:25:08;;;;;;;4.33;3.50;;;;;;;;;;5046646;28;20184;-56
2022/05/27 01:27:46;;;;;;;6.17;3.50;;;;;;;;;;5058372;28;21668;-56
2022/05/27 01:30:21;;;;;;;11.77;10.97;;;;;;;;;;5042140;28;20234;-56
2022/05/27 01:32:47;;;;;;;4.13;3.73;;;;;;;;;;5066655;28;20194;-56
2022/05/27 01:35:21;;;;;;;4.23;3.60;;;;;;;;;;5047600;28;20660;-56
2022/05/27 01:37:53;;;;;;;4.10;3.70;;;;;;;;;;5032477;28;20199;-57
2022/05/27 01:40:29;;;;;;;5.40;4.03;;;;;;;;;;5045350;28;20204;-56
2022/05/27 01:43:01;;;;;;;6.07;3.70;;;;;;;;;;5038974;28;20417;-55
2022/05/27 01:45:29;;;;;;;4.67;4.23;;;;;;;;;;5041800;28;20330;-55
2022/05/27 01:48:02;;;;;;;3.50;3.03;;;;;;;;;;5049460;28;20595;-56
2022/05/27 01:50:33;;;;;;;4.00;3.70;;;;;;;;;;5047235;28;20188;-55
2022/05/27 01:53:23;;;;;;;3.90;3.30;;;;;;;;;;5062633;28;20204;-56
2022/05/27 01:55:49;;;;;;;3.30;3.00;;;;;;;;;;5034554;28;20200;-55
2022/05/27 01:58:20;;;;;;;3.83;3.40;;;;;;;;;;5038842;28;20280;-56
2022/05/27 02:00:47;;;;;;;3.67;3.30;;;;;;;;;;5027210;28;20201;-56
2022/05/27 02:03:22;;;;;;;12.37;11.67;;;;;;;;;;5064501;28;20654;-56
2022/05/27 02:05:51;;;;;;;3.37;3.03;;;;;;;;;;5053964;28;20203;-55
2022/05/27 02:08:44;;;;;;;3.47;3.17;;;;;;;;;;5046346;28;20560;-55
2022/05/27 02:11:18;;;;;;;4.13;2.87;;;;;;;;;;5036863;28;20201;-56
2022/05/27 02:13:50;;;;;;;3.70;3.40;;;;;;;;;;5052550;28;20180;-55
2022/05/27 02:16:22;;;;;;;3.47;3.17;;;;;;;;;;5048806;28;20626;-55
2022/05/27 02:18:50;;;;;;;4.17;2.90;;;;;;;;;;5035370;28;20403;-55
2022/05/27 02:21:31;;;;;;;3.17;2.90;;;;;;;;;;5063720;28;20188;-55
2022/05/27 02:23:59;;;;;;;3.43;3.13;;;;;;;;;;5048812;28;20195;-56
2022/05/27 02:26:29;;;;;;;3.65;3.30;;;;;;;;;;5065954;28;20371;-56
2022/05/27 02:29:20;;;;;;;3.93;3.40;;;;;;;;;;5039405;28;20193;-57
2022/05/27 02:31:48;;;;;;;5.33;3.60;;;;;;;;;;5050666;28;20188;-56
2022/05/27 02:37:07;;;;;;;3.10;2.90;;;;;;;;;;5058335;28;20234;-56
2022/05/27 02:39:35;;;;;;;3.23;2.93;;;;;;;;;;5065245;28;20478;-55
2022/05/27 02:42:01;;;;;;;4.10;3.77;;;;;;;;;;5030369;28;20645;-55
2022/05/27 02:44:50;;;;;;;3.33;3.03;;;;;;;;;;5043166;28;20694;-56
2022/05/27 02:47:38;;;;;;;4.40;3.33;;;;;;;;;;5034997;28;20706;-56
2022/05/27 02:50:13;;;;;;;3.67;3.30;;;;;;;;;;5045684;28;20272;-55
2022/05/27 02:52:55;;;;;;;3.50;2.87;;;;;;;;;;5054313;28;20210;-56
2022/05/27 02:55:25;;;;;;;4.67;3.37;;;;;;;;;;5058020;28;20331;-55
2022/05/27 02:57:52;;;;;;;5.10;3.30;;;;;;;;;;5038945;28;20197;-56
2022/05/27 03:00:29;;;;;;;4.67;3.90;;;;;;;;;;5053653;28;20190;-55
2022/05/27 03:02:59;;;;;;;3.50;3.20;;;;;;;;;;5041720;28;20183;-56
2022/05/27 03:05:51;;;;;;;3.83;3.10;;;;;;;;;;5057428;28;20187;-56
2022/05/27 03:08:35;;;;;;;4.67;3.23;;;;;;;;;;5015046;28;20227;-56
2022/05/27 03:11:13;;;;;;;4.70;3.17;;;;;;;;;;5035489;28;20184;-56
2022/05/27 03:13:58;;;;;;;3.40;3.10;;;;;;;;;;5028597;28;20535;-56
2022/05/27 03:16:29;;;;;;;4.27;3.67;;;;;;;;;;5053644;28;20236;-56
2022/05/27 03:19:10;;;;;;;4.03;3.63;;;;;;;;;;5066114;28;20196;-55
2022/05/27 03:21:40;;;;;;;5.67;3.93;;;;;;;;;;5031370;28;20194;-56
2022/05/27 03:24:18;;;;;;;5.37;3.53;;;;;;;;;;5043837;28;20181;-57
2022/05/27 03:27:03;;;;;;;3.77;3.43;;;;;;;;;;5002985;28;20189;-56
2022/05/27 03:29:29;;;;;;;4.00;3.60;;;;;;;;;;5034493;28;20177;-57
2022/05/27 03:32:08;;;;;;;10.83;10.20;;;;;;;;;;5060221;28;20188;-57
2022/05/27 03:34:38;;;;;;;3.13;2.73;;;;;;;;;;5037070;28;20180;-58
2022/05/27 03:37:04;;;;;;;3.53;2.83;;;;;;;;;;5056064;28;20254;-58
2022/05/27 03:39:38;;;;;;;4.03;3.30;;;;;;;;;;5048388;28;20558;-57
2022/05/27 03:42:06;;;;;;;4.30;3.53;;;;;;;;;;5020091;28;22876;-59
2022/05/27 03:44:32;;;;;;;3.50;3.20;;;;;;;;;;5044767;28;20177;-59
2022/05/27 03:47:06;;;;;;;4.00;3.70;;;;;;;;;;5039371;28;20181;-60
2022/05/27 03:49:35;;;;;;;3.73;3.43;;;;;;;;;;5045593;28;20541;-59
2022/05/27 03:52:05;;;;;;;3.17;2.87;;;;;;;;;;5043580;28;20193;-60
2022/05/27 03:54:32;;;;;;;3.37;3.07;;;;;;;;;;5048693;28;20839;-58
2022/05/27 03:57:04;;;;;;;2.73;2.53;;;;;;;;;;5032206;28;20200;-58
2022/05/27 03:59:32;;;;;;;3.20;2.90;;;;;;;;;;5057526;28;20200;-59
2022/05/27 04:01:58;;;;;;;3.53;2.93;;;;;;;;;;5049353;28;20272;-59
2022/05/27 04:04:28;;;;;;;3.23;2.30;;;;;;;;;;5067794;28;20467;-58
2022/05/27 04:06:54;;;;;;;2.90;2.70;;;;;;;;;;5066698;28;20212;-59
2022/05/27 04:09:21;;;;;;;8.87;8.37;;;;;;;;;;5040836;28;20193;-57
2022/05/27 04:11:51;;;;;;;3.00;2.70;;;;;;;;;;5057433;28;20186;-58
2022/05/27 04:14:17;;;;;;;3.73;2.57;;;;;;;;;;5040643;28;20209;-58
2022/05/27 04:16:49;;;;;;;3.33;3.00;;;;;;;;;;5059331;28;20196;-58
2022/05/27 04:19:21;;;;;;;2.47;2.27;;;;;;;;;;5046969;28;20601;-58
2022/05/27 04:21:48;;;;;;;2.60;2.30;;;;;;;;;;5067505;28;20634;-58
2022/05/27 04:24:14;;;;;;;3.00;2.50;;;;;;;;;;5048582;28;20737;-58
2022/05/27 04:26:40;;;;;;;3.03;2.80;;;;;;;;;;5031059;28;20211;-58
2022/05/27 04:29:08;;;;;;;4.67;4.37;;;;;;;;;;5035529;28;20606;-59
2022/05/27 04:31:35;;;;;;;3.37;2.53;;;;;;;;;;5044929;28;20192;-58
2022/05/27 04:34:10;;;;;;;3.03;2.53;;;;;;;;;;5062159;28;20181;-57
2022/05/27 04:36:36;;;;;;;3.37;3.07;;;;;;;;;;5067009;28;20187;-57
2022/05/27 04:39:05;;;;;;;2.33;2.20;;;;;;;;;;5068074;28;20709;-59
2022/05/27 04:41:31;;;;;;;2.80;2.60;;;;;;;;;;5026205;28;20189;-58
2022/05/27 04:43:58;;;;;;;2.33;2.00;;;;;;;;;;5053769;28;20169;-58
2022/05/27 04:46:24;;;;;;;4.90;4.70;;;;;;;;;;5058044;28;20184;-57
2022/05/27 04:48:50;;;;;;;2.97;2.30;;;;;;;;;;5045585;28;20181;-57
2022/05/27 04:51:16;;;;;;;2.37;2.20;;;;;;;;;;5042276;28;20238;-58
2022/05/27 04:53:42;;;;;;;2.40;2.17;;;;;;;;;;5042485;28;20200;-58
2022/05/27 04:56:17;;;;;;;2.40;2.20;;;;;;;;;;5058415;28;20176;-58
2022/05/27 04:58:46;;;;;;;2.33;2.17;;;;;;;;;;5048586;28;20195;-58
2022/05/27 05:01:15;;;;;;;2.47;2.37;;;;;;;;;;5067868;28;20256;-57
2022/05/27 05:03:41;;;;;;;2.17;2.07;;;;;;;;;;5045962;28;20193;-58
2022/05/27 05:06:07;;;;;;;2.30;2.10;;;;;;;;;;5048758;28;20181;-59
2022/05/27 05:08:36;;;;;;;2.70;2.50;;;;;;;;;;5030762;28;20220;-59
2022/05/27 05:11:03;;;;;;;2.20;2.03;;;;;;;;;;5060485;28;20172;-58
2022/05/27 05:13:29;;;;;;;2.77;2.00;;;;;;;;;;5055333;28;20210;-58
2022/05/27 05:15:56;;;;;;;3.23;2.93;;;;;;;;;;5032987;28;20204;-59
2022/05/27 05:18:29;;;;;;;3.47;2.50;;;;;;;;;;5052927;28;20188;-58
2022/05/27 05:21:06;;;;;;;2.83;2.00;;;;;;;;;;5061066;28;21010;-57
2022/05/27 05:23:32;;;;;;;2.53;2.33;;;;;;;;;;5037851;28;20192;-58
2022/05/27 05:26:01;;;;;;;2.80;2.57;;;;;;;;;;5067852;28;20650;-59
2022/05/27 05:28:30;;;;;;;2.43;2.23;;;;;;;;;;5044848;28;20239;-58
2022/05/27 05:30:56;;;;;;;2.60;2.40;;;;;;;;;;5042582;28;20187;-58
2022/05/27 05:33:22;;;;;;;2.40;2.00;;;;;;;;;;5045092;28;21217;-59
2022/05/27 05:35:48;;;;;;;2.33;2.03;;;;;;;;;;5050513;28;20180;-59
2022/05/27 05:38:30;;;;;;;2.70;2.20;;;;;;;;;;5054566;28;20247;-59
2022/05/27 05:40:56;;;;;;;2.63;2.20;;;;;;;;;;5037190;28;20200;-58
2022/05/27 05:43:22;;;;;;;3.10;2.00;;;;;;;;;;5060634;28;21250;-59
2022/05/27 05:45:49;;;;;;;2.00;1.80;;;;;;;;;;5058042;28;20181;-59
2022/05/27 05:48:15;;;;;;;2.43;2.03;;;;;;;;;;5044076;28;20182;-58
2022/05/27 05:50:41;;;;;;;4.07;3.10;;;;;;;;;;5064081;28;20587;-57
2022/05/27 05:53:07;;;;;;;3.63;2.37;;;;;;;;;;5058997;28;20745;-57
2022/05/27 05:55:35;;;;;;;2.60;2.40;;;;;;;;;;5046038;28;20766;-57
2022/05/27 05:58:02;;;;;;;3.40;2.60;;;;;;;;;;5064573;28;20912;-58
2022/05/27 06:00:29;;;;;;;4.10;2.37;;;;;;;;;;5042878;28;20316;-58
2022/05/27 06:02:55;;;;;;;2.30;2.10;;;;;;;;;;5056696;28;20189;-57
2022/05/27 06:05:25;;;;;;;2.47;2.27;;;;;;;;;;5034740;28;20177;-58
2022/05/27 06:07:52;;;;;;;4.40;2.60;;;;;;;;;;5045332;28;20279;-57
2022/05/27 06:10:19;;;;;;;3.17;2.20;;;;;;;;;;5049586;28;20161;-57
2022/05/27 06:12:54;;;;;;;4.17;2.60;;;;;;;;;;5067724;28;20659;-57
2022/05/27 06:15:23;;;;;;;3.67;2.60;;;;;;;;;;5039957;28;20736;-58
2022/05/27 06:17:49;;;;;;;2.53;2.28;;;;;;;;;;5035006;28;20867;-58
2022/05/27 06:20:15;;;;;;;4.37;3.40;;;;;;;;;;5052786;28;20671;-59
2022/05/27 06:22:47;;;;;;;7.37;3.30;;;;;;;;;;5037165;28;20196;-57
2022/05/27 06:25:13;;;;;;;4.63;3.10;;;;;;;;;;5030116;28;20188;-57
2022/05/27 06:27:40;;;;;;;3.00;2.70;;;;;;;;;;5038919;28;20256;-58
2022/05/27 06:35:37;;;;;;;6.73;2.93;;;;;;;;;;5047938;28;20184;-57
2022/05/27 06:38:03;;;;;;;3.43;2.80;;;;;;;;;;5039340;28;20513;-57
2022/05/27 06:40:32;;;;;;;3.93;2.87;;;;;;;;;;5040753;28;20204;-58
2022/05/27 06:43:10;;;;;;;6.90;3.27;;;;;;;;;;5063187;28;20169;-57
2022/05/27 06:45:37;;;;;;;4.17;2.80;;;;;;;;;;5059929;28;20177;-57
2022/05/27 06:48:06;;;;;;;4.47;3.37;;;;;;;;;;5036579;28;20582;-57
2022/05/27 06:50:33;;;;;;;3.53;2.60;;;;;;;;;;5048826;28;20530;-57
2022/05/27 06:53:05;;;;;;;3.47;2.60;;;;;;;;;;5063466;28;20196;-57
2022/05/27 06:55:32;;;;;;;4.47;2.40;;;;;;;;;;5063980;28;20189;-57
2022/05/27 06:57:58;;;;;;;2.77;2.57;;;;;;;;;;5048052;28;20246;-58
2022/05/27 07:00:24;;;;;;;4.87;2.37;;;;;;;;;;5042713;28;20228;-59
2022/05/27 07:02:50;;;;;;;7.37;2.90;;;;;;;;;;5056696;28;20195;-59
2022/05/27 07:05:16;;;;;;;7.03;3.30;;;;;;;;;;5044266;28;20192;-59
2022/05/27 07:07:42;;;;;;;8.73;3.80;;;;;;;;;;5065995;28;20227;-59
2022/05/27 07:10:09;;;;;;;6.33;3.37;;;;;;;;;;5028838;28;20188;-59
2022/05/27 07:12:36;;;;;;;10.13;4.33;;;;;;;;;;5030452;28;20228;-59
2022/05/27 07:15:02;;;;;;;5.00;4.03;;;;;;;;;;5045325;28;20185;-59
2022/05/27 07:17:29;;;;;;;4.90;3.67;;;;;;;;;;5032111;28;20624;-59
2022/05/27 07:19:55;;;;;;;8.97;4.20;;;;;;;;;;5044287;28;20691;-59
2022/05/27 07:22:21;;;;;;;8.37;4.67;;;;;;;;;;5063613;28;20539;-59
2022/05/27 07:24:47;;;;;;;6.23;3.80;;;;;;;;;;5033766;28;20179;-59
2022/05/27 07:27:14;;;;;;;7.00;4.47;;;;;;;;;;5039138;28;20192;-59
2022/05/27 07:29:44;;;;;;;8.03;4.80;;;;;;;;;;5038174;28;20428;-59
2022/05/27 07:32:10;;;;;;;6.97;4.70;;;;;;;;;;5032702;28;20222;-59
2022/05/27 07:34:36;;;;;;;4.30;3.90;;;;;;;;;;5042144;28;20189;-60
2022/05/27 07:37:03;;;;;;;7.80;4.70;;;;;;;;;;5033472;28;20750;-60
2022/05/27 07:39:29;;;;;;;11.47;4.60;;;;;;;;;;5060543;28;20300;-60
2022/05/27 07:41:55;;;;;;;5.73;3.83;;;;;;;;;;5054287;28;20552;-60
2022/05/27 07:44:21;;;;;;;7.47;4.03;;;;;;;;;;5042268;28;20180;-60
2022/05/27 07:46:51;;;;;;;6.37;5.10;;;;;;;;;;5068218;28;20605;-59
2022/05/27 07:49:17;;;;;;;7.17;4.40;;;;;;;;;;5046184;28;20289;-59
2022/05/27 07:51:43;;;;;;;5.87;4.90;;;;;;;;;;5064777;28;20188;-59
2022/05/27 07:54:11;;;;;;;7.60;4.63;;;;;;;;;;5065504;28;20236;-59
2022/05/27 07:56:42;;;;;;;7.57;4.80;;;;;;;;;;5047252;28;20968;-59
2022/05/27 07:59:09;;;;;;;5.20;4.40;;;;;;;;;;5047395;28;20201;-59
2022/05/27 08:01:36;;;;;;;7.60;4.27;;;;;;;;;;5053002;28;20220;-59
2022/05/27 08:04:03;;;;;;;6.20;3.60;;;;;;;;;;5045785;28;20991;-59
2022/05/27 08:06:30;;;;;;;8.57;4.30;;;;;;;;;;5065088;28;20200;-59
2022/05/27 08:08:57;;;;;;;7.30;4.43;;;;;;;;;;5050961;28;20233;-59
2022/05/27 08:11:24;;;;;;;4.70;4.30;;;;;;;;;;5064044;28;20192;-59
2022/05/27 08:13:51;;;;;;;6.37;3.93;;;;;;;;;;5045828;28;20181;-59
2022/05/27 08:16:18;;;;;;;7.90;4.10;;;;;;;;;;5073817;28;20195;-59
2022/05/27 08:18:44;;;;;;;6.00;5.00;;;;;;;;;;5054533;28;20176;-58
2022/05/27 08:21:11;;;;;;;7.97;4.07;;;;;;;;;;5037957;28;20271;-59
2022/05/27 08:23:38;;;;;;;6.17;4.47;;;;;;;;;;5041141;28;20705;-59
2022/05/27 08:26:04;;;;;;;5.60;3.87;;;;;;;;;;5040905;28;20175;-59
2022/05/27 08:28:31;;;;;;;6.23;3.73;;;;;;;;;;5058637;28;20188;-59
2022/05/27 08:30:58;;;;;;;5.37;3.40;;;;;;;;;;5041752;28;20184;-59
2022/05/27 08:33:25;;;;;;;7.03;3.83;;;;;;;;;;5060455;28;20183;-59
2022/05/27 08:38:38;;;;;;;8.10;3.93;;;;;;;;;;5060955;28;20689;-59
2022/05/27 08:41:14;;;;;;;6.13;4.27;;;;;;;;;;5069339;28;20240;-59
2022/05/27 08:43:44;;;;;;;5.83;4.00;;;;;;;;;;5045149;28;20298;-59
2022/05/27 08:46:26;;;;;;;6.70;3.90;;;;;;;;;;5043643;28;20262;-58
2022/05/27 08:48:54;;;;;;;6.13;3.57;;;;;;;;;;5058153;28;20192;-59
2022/05/27 08:51:28;;;;;;;8.27;3.73;;;;;;;;;;5065040;28;20573;-59
2022/05/27 08:54:02;;;;;;;6.70;4.13;;;;;;;;;;5024807;28;20266;-58
2022/05/27 08:59:28;;;;;;;8.40;3.73;;;;;;;;;;5057110;28;20267;-58
2022/05/27 09:02:02;;;;;;;6.80;3.17;;;;;;;;;;5051219;28;20209;-58
2022/05/27 09:04:49;;;;;;;6.67;3.70;;;;;;;;;;5044550;28;20195;-58
2022/05/27 09:07:33;;;;;;;6.43;3.50;;;;;;;;;;5023551;28;20227;-58
2022/05/27 09:10:00;;;;;;;6.47;3.20;;;;;;;;;;5045158;28;20197;-58
2022/05/27 09:12:46;;;;;;;9.93;4.30;;;;;;;;;;5033105;28;20185;-58
2022/05/27 09:15:18;;;;;;;6.53;3.23;;;;;;;;;;5047363;28;20273;-58
2022/05/27 09:17:44;;;;;;;5.37;3.30;;;;;;;;;;5068837;28;20191;-59
2022/05/27 09:20:19;;;;;;;7.20;3.70;;;;;;;;;;5048299;28;20546;-58
2022/05/27 09:22:56;;;;;;;4.70;3.07;;;;;;;;;;5037177;28;20694;-58
2022/05/27 09:25:31;;;;;;;7.17;4.17;;;;;;;;;;5044218;28;20178;-59
2022/05/27 09:28:12;;;;;;;7.03;4.03;;;;;;;;;;5036069;28;20500;-59
2022/05/27 09:30:39;;;;;;;6.83;3.30;;;;;;;;;;5068670;28;20208;-58
2022/05/27 09:33:17;;;;;;;9.47;3.90;;;;;;;;;;5069061;28;20180;-59
2022/05/27 09:35:46;;;;;;;6.30;4.10;;;;;;;;;;5041500;28;20681;-60
2022/05/27 09:38:18;;;;;;;6.00;3.73;;;;;;;;;;5042091;28;20169;-58
2022/05/27 09:40:48;;;;;;;8.90;3.90;;;;;;;;;;5062374;28;20556;-58
2022/05/27 09:43:29;;;;;;;6.67;3.00;;;;;;;;;;5055426;28;20663;-59
2022/05/27 09:45:57;;;;;;;7.77;3.53;;;;;;;;;;5043213;28;20185;-59
2022/05/27 09:48:23;;;;;;;8.03;4.13;;;;;;;;;;5043240;28;20200;-60
2022/05/27 09:50:49;;;;;;;8.07;3.87;;;;;;;;;;5038082;28;20189;-58
2022/05/27 09:53:20;;;;;;;11.90;5.17;;;;;;;;;;5056392;28;20207;-59
2022/05/27 09:55:49;;;;;;;8.13;3.93;;;;;;;;;;5047698;28;20184;-58
2022/05/27 09:58:23;;;;;;;5.67;3.30;;;;;;;;;;5054734;28;20176;-60
2022/05/27 10:00:49;;;;;;;9.17;3.77;;;;;;;;;;5027779;28;20204;-60
2022/05/27 10:03:23;;;;;;;10.50;3.60;;;;;;;;;;5029975;28;20188;-60
2022/05/27 10:05:53;;;;;;;9.83;4.03;;;;;;;;;;5048186;28;20172;-59
2022/05/27 10:08:28;;;;;;;6.77;3.53;;;;;;;;;;5049377;28;20697;-59
2022/05/27 10:11:14;;;;;;;6.10;3.27;;;;;;;;;;5063379;28;20545;-58
2022/05/27 10:13:41;;;;;;;8.17;3.40;;;;;;;;;;5046291;28;20215;-59
2022/05/27 10:16:27;;;;;;;5.87;3.13;;;;;;;;;;5048113;28;20264;-58
2022/05/27 10:19:06;;;;;;;8.20;4.10;;;;;;;;;;5039113;28;20185;-59
2022/05/27 10:21:33;;;;;;;7.00;3.90;;;;;;;;;;5058412;28;20627;-60
2022/05/27 10:24:13;;;;;;;9.00;3.90;;;;;;;;;;5046708;28;20646;-60
2022/05/27 10:26:40;;;;;;;8.83;3.70;;;;;;;;;;5031850;28;20195;-60
2022/05/27 10:29:17;;;;;;;7.23;3.70;;;;;;;;;;5060041;28;20699;-60
2022/05/27 10:31:52;;;;;;;8.47;3.57;;;;;;;;;;5029583;28;20939;-60
2022/05/27 10:34:40;;;;;;;7.30;3.67;;;;;;;;;;5046134;28;20168;-59
2022/05/27 10:37:11;;;;;;;4.83;3.17;;;;;;;;;;5054314;28;20215;-60
2022/05/27 10:39:57;;;;;;;10.00;4.27;;;;;;;;;;5048487;28;20219;-60
2022/05/27 10:42:29;;;;;;;6.33;3.63;;;;;;;;;;5054215;28;20177;-59
2022/05/27 10:44:55;;;;;;;6.67;3.50;;;;;;;;;;5038673;28;20189;-57
2022/05/27 10:47:35;;;;;;;7.07;3.33;;;;;;;;;;5049523;28;20575;-56
2022/05/27 10:50:25;;;;;;;5.93;3.47;;;;;;;;;;5036574;28;20681;-56
2022/05/27 10:52:58;;;;;;;8.97;3.40;;;;;;;;;;5048122;28;20232;-57
2022/05/27 10:55:35;;;;;;;5.87;3.57;;;;;;;;;;5040876;28;20184;-58
2022/05/27 11:04:11;;;;;;;10.33;3.73;;;;;;;;;;5072031;28;20196;-59
2022/05/27 11:06:52;;;;;;;7.73;4.50;;;;;;;;;;5042203;28;20180;-60
2022/05/27 11:09:18;;;;;;;9.60;3.70;;;;;;;;;;5043746;28;20196;-60
2022/05/27 11:12:04;;;;;;;11.33;4.27;;;;;;;;;;5044668;28;20189;-59
2022/05/27 11:17:29;;;;;;;10.37;3.63;;;;;;;;;;5062017;28;20198;-59
2022/05/27 11:20:02;;;;;;;10.17;3.20;;;;;;;;;;5035479;28;20290;-57
2022/05/27 11:22:42;;;;;;;6.67;3.33;;;;;;;;;;5037340;28;20389;-57
2022/05/27 11:25:09;;;;;;;4.50;3.00;;;;;;;;;;5069513;28;20213;-56
2022/05/27 11:27:45;;;;;;;7.20;3.33;;;;;;;;;;5050862;28;20764;-57
2022/05/27 11:30:17;;;;;;;8.90;3.73;;;;;;;;;;5048499;28;20275;-56
2022/05/27 11:33:06;;;;;;;8.13;3.97;;;;;;;;;;5037502;28;20580;-56
2022/05/27 11:35:32;;;;;;;8.57;3.73;;;;;;;;;;5044807;28;20651;-57
2022/05/27 11:38:04;;;;;;;8.77;4.00;;;;;;;;;;5054356;28;20188;-58
2022/05/27 11:40:37;;;;;;;4.63;3.50;;;;;;;;;;5066142;28;20196;-62
2022/05/27 11:43:04;;;;;;;5.50;3.40;;;;;;;;;;5068755;28;20657;-60
2022/05/27 11:45:43;;;;;;;12.63;3.83;;;;;;;;;;5054420;28;20173;-59
2022/05/27 11:48:22;;;;;;;8.53;3.60;;;;;;;;;;5061337;28;20180;-57
2022/05/27 11:50:54;;;;;;;4.80;3.10;;;;;;;;;;5065848;28;20211;-57
2022/05/27 11:53:30;;;;;;;11.07;3.97;;;;;;;;;;5040487;28;20617;-57
2022/05/27 11:56:14;;;;;;;7.63;3.50;;;;;;;;;;5065416;28;20728;-56
2022/05/27 11:58:55;;;;;;;8.53;3.60;;;;;;;;;;5049906;28;20626;-56
2022/05/27 12:01:36;;;;;;;10.40;5.57;;;;;;;;;;5063190;28;20179;-58
2022/05/27 12:04:09;;;;;;;6.53;3.40;;;;;;;;;;5068364;28;20175;-56
2022/05/27 12:06:54;;;;;;;5.67;3.40;;;;;;;;;;5068378;28;20222;-57
2022/05/27 12:09:52;;;;;;;5.10;3.10;;;;;;;;;;5059464;28;20202;-57
2022/05/27 12:12:31;;;;;;;8.17;3.47;;;;;;;;;;5012840;28;20209;-56
2022/05/27 12:15:09;;;;;;;8.43;3.73;;;;;;;;;;5041936;28;20536;-58
2022/05/27 12:17:43;;;;;;;4.77;3.97;;;;;;;;;;5035671;28;20235;-57
2022/05/27 12:20:11;;;;;;;6.90;5.80;;;;;;;;;;5048120;28;20597;-55
2022/05/27 12:22:37;;;;;;;6.17;3.43;;;;;;;;;;5053329;28;20185;-55
2022/05/27 12:25:15;;;;;;;8.07;3.77;;;;;;;;;;5067002;28;20180;-57
2022/05/27 12:27:42;;;;;;;7.43;3.70;;;;;;;;;;5064056;28;20173;-56
2022/05/27 12:30:13;;;;;;;9.37;3.33;;;;;;;;;;5069421;28;20237;-56
2022/05/27 12:32:41;;;;;;;7.20;3.50;;;;;;;;;;5057731;28;20187;-56
2022/05/27 12:35:26;;;;;;;7.80;3.30;;;;;;;;;;5063357;28;20184;-56
2022/05/27 12:38:00;;;;;;;5.53;3.10;;;;;;;;;;5046663;28;20432;-56
2022/05/27 12:40:32;;;;;;;9.13;3.57;;;;;;;;;;5061412;28;20527;-56
2022/05/27 12:43:22;;;;;;;7.40;3.43;;;;;;;;;;5059571;28;20630;-56
2022/05/27 12:45:53;;;;;;;8.83;3.70;;;;;;;;;;5056969;28;20250;-56
2022/05/27 12:48:19;;;;;;;;;;;;;;;;;;5073979;28;20025;-61
2022/05/27 12:50:45;;;;;;;5.55;3.00;;;;;;;;;;5045170;28;20404;-59
2022/05/27 12:53:17;;;;;;;5.77;2.83;;;;;;;;;;5050787;28;20206;-61
2022/05/27 13:01:43;;;;;;;9.80;3.13;;;;;;;;;;5069175;28;20190;-62
2022/05/27 13:04:29;;;;;;;7.10;2.70;;;;;;;;;;5069926;28;20231;-62
2022/05/27 13:06:55;;;;;;;;;;;;;;;;;;5034091;28;20032;-55
2022/05/27 13:09:21;;;;;;;;;;;;;;;;;;5044633;28;19917;-54
2022/05/27 13:11:48;;;;;;;;;;;;;;;;;;5068008;28;19958;-55
2022/05/27 13:14:14;;;;;;;;;;;;;;;;;;5041008;28;19962;-54
2022/05/27 13:16:40;;;;;;;;;;;;;;;;;;5042685;28;19913;-64
2022/05/27 13:19:08;;;;;;;8.80;3.22;;;;;;;;;;5037699;28;20471;-62
2022/05/27 13:21:35;;;;;;;9.32;3.70;;;;;;;;;;5042827;28;20414;-65
2022/05/27 13:24:13;;;;;;;4.00;2.70;;;;;;;;;;5047863;28;20243;-60
2022/05/27 13:26:39;;;;;;;10.27;2.73;;;;;;;;;;5050009;28;20265;-52
2022/05/27 13:29:39;;;;;;;8.50;3.40;;;;;;;;;;5042309;28;20223;-54
2022/05/27 13:32:11;;;;;;;6.80;2.77;;;;;;;;;;5054451;28;20187;-55
2022/05/27 13:34:56;;;;;;;20.37;4.37;;;;;;;;;;5040056;28;20187;-55
2022/05/27 13:37:27;;;;;;;15.67;3.53;;;;;;;;;;5055541;28;20186;-54
2022/05/27 13:39:54;;;;;;;7.90;2.97;;;;;;;;;;5056593;28;20305;-54
2022/05/27 13:42:32;;;;;;;9.97;3.30;;;;;;;;;;5040257;28;20648;-52
2022/05/27 13:45:01;;;;;;;5.10;2.73;;;;;;;;;;5056870;28;20186;-52
2022/05/27 13:47:28;;;;;;;6.23;2.40;;;;;;;;;;5056487;28;20188;-54
2022/05/27 13:49:54;;;;;;;7.67;3.03;;;;;;;;;;5051524;28;20209;-52
2022/05/27 13:52:27;;;;;;;7.17;3.07;;;;;;;;;;5046707;28;20284;-52
2022/05/27 13:55:11;;;;;;;5.73;2.27;;;;;;;;;;5028983;28;20187;-53
2022/05/27 13:57:39;;;;;;;8.50;3.63;;;;;;;;;;5048136;28;20185;-52
2022/05/27 14:00:06;;;;;;;5.57;3.33;;;;;;;;;;5053906;28;20276;-53
2022/05/27 14:02:38;;;;;;;7.57;2.67;;;;;;;;;;5077679;28;20273;-53
2022/05/27 14:05:11;;;;;;;8.03;3.20;;;;;;;;;;5041276;28;20180;-53
2022/05/27 14:07:43;;;;;;;5.97;2.87;;;;;;;;;;5050677;28;20217;-53
2022/05/27 14:10:22;;;;;;;5.53;2.53;;;;;;;;;;5055590;28;20206;-50
2022/05/27 14:12:49;;;;;;;6.17;2.73;;;;;;;;;;5052704;28;20178;-51
2022/05/27 14:15:28;;;;;;;4.90;2.20;;;;;;;;;;5048506;28;20652;-52
2022/05/27 14:17:55;;;;;;;3.60;2.20;;;;;;;;;;5067457;28;20185;-51
2022/05/27 14:20:27;;;;;;;5.53;3.90;;;;;;;;;;5070338;28;20671;-52
2022/05/27 14:22:55;;;;;;;5.17;2.20;;;;;;;;;;5067952;28;20251;-53
2022/05/27 14:25:26;;;;;;;10.03;2.60;;;;;;;;;;5057652;28;20229;-55
2022/05/27 14:27:54;;;;;;;5.30;2.63;;;;;;;;;;5062277;28;20695;-54
2022/05/27 14:30:23;;;;;;;6.43;2.67;;;;;;;;;;5059664;28;20579;-53
2022/05/27 14:32:49;;;;;;;22.10;3.83;;;;;;;;;;5057029;28;20178;-53
2022/05/27 14:35:21;;;;;;;61.27;11.03;;;;;;;;;;5044400;28;20538;-52
2022/05/27 14:37:52;;;;;;;16.03;4.00;;;;;;;;;;5050530;28;20270;-54
2022/05/27 14:40:33;;;;;;;15.57;3.73;;;;;;;;;;5059824;28;20210;-53
2022/05/27 14:43:00;;;;;;;17.50;4.50;;;;;;;;;;5042695;28;20518;-53
2022/05/27 14:45:31;;;;;;;15.10;4.67;;;;;;;;;;5047074;28;20657;-53
2022/05/27 14:47:58;;;;;;;8.13;3.30;;;;;;;;;;5072096;28;20768;-51
2022/05/27 14:50:32;;;;;;;15.57;4.23;;;;;;;;;;5059805;28;20270;-50
2022/05/27 14:53:01;;;;;;;7.70;2.83;;;;;;;;;;5063206;28;20216;-51
2022/05/27 14:55:29;;;;;;;9.43;2.93;;;;;;;;;;5031854;28;20193;-50
2022/05/27 14:58:00;;;;;;;12.03;3.00;;;;;;;;;;5045474;28;20183;-51
2022/05/27 15:00:26;;;;;;;10.07;2.87;;;;;;;;;;5044182;28;20405;-49
2022/05/27 15:02:55;;;;;;;7.83;2.43;;;;;;;;;;5032666;28;20245;-50
2022/05/27 15:05:26;;;;;;;8.83;2.93;;;;;;;;;;5049892;28;20524;-51
2022/05/27 15:08:03;;;;;;;13.53;3.10;;;;;;;;;;5053813;28;20725;-51
2022/05/27 15:10:37;;;;;;;7.67;2.83;;;;;;;;;;5061458;28;20727;-50
2022/05/27 15:13:22;;;;;;;7.43;3.00;;;;;;;;;;5061423;28;20176;-53
2022/05/27 15:15:48;;;;;;;7.37;2.97;;;;;;;;;;5058115;28;20186;-50
2022/05/27 15:18:19;;;;;;;9.40;3.73;;;;;;;;;;5067640;28;20173;-50
2022/05/27 15:20:51;;;;;;;8.87;3.33;;;;;;;;;;5058834;28;20205;-50
2022/05/27 15:23:22;;;;;;;6.40;2.93;;;;;;;;;;5057363;28;20620;-51
2022/05/27 15:25:49;;;;;;;17.87;3.70;;;;;;;;;;5032177;28;20177;-51
2022/05/27 15:34:10;;;;;;;7.17;3.00;;;;;;;;;;5056635;28;20191;-50
2022/05/27 15:36:36;;;;;;;7.43;3.03;;;;;;;;;;5063440;28;20771;-48
2022/05/27 15:39:03;;;;;;;7.30;3.43;;;;;;;;;;5042548;28;20180;-51
2022/05/27 15:41:31;;;;;;;7.97;3.20;;;;;;;;;;5027076;28;20435;-51
2022/05/27 15:43:58;;;;;;;10.07;2.70;;;;;;;;;;5054990;28;20694;-51
2022/05/27 15:46:25;;;;;;;10.10;3.25;;;;;;;;;;5051014;28;20430;-52